createdAt,value
2022-09-11T00:12:44.297Z,100
2022-09-11T00:27:13.994Z,100
2022-09-11T00:41:43.529Z,100
2022-09-11T00:56:13.486Z,100
2022-09-11T01:10:43.371Z,100
2022-09-11T01:25:13.796Z,100
2022-09-11T01:39:42.616Z,100
2022-09-11T01:54:12.271Z,100
2022-09-11T02:08:41.928Z,100
2022-09-11T02:23:11.622Z,100
2022-09-11T02:37:40.727Z,100
2022-09-11T02:52:10.726Z,100
2022-09-11T03:06:40.812Z,100
2022-09-11T03:21:09.242Z,100
2022-09-11T03:35:38.694Z,100
2022-09-11T03:50:07.811Z,100
2022-09-11T04:04:37.438Z,100
2022-09-11T04:19:07.410Z,100
2022-09-11T04:33:36.930Z,100
2022-09-11T04:48:05.288Z,100
2022-09-11T05:02:35.093Z,100
2022-09-11T05:17:04.440Z,100
2022-09-11T05:31:32.741Z,100
2022-09-11T05:46:01.600Z,100
2022-09-11T06:00:30.331Z,100
2022-09-11T06:15:00.194Z,100
2022-09-11T06:29:29.493Z,100
2022-09-11T06:43:59.161Z,100
2022-09-11T06:58:28.837Z,100
2022-09-11T07:13:03.541Z,100
2022-09-11T07:27:33.350Z,93.5
2022-09-11T07:42:01.559Z,94
2022-09-11T07:56:28.453Z,88.7
2022-09-11T08:10:59.327Z,83.6
2022-09-11T08:25:33.148Z,81
2022-09-11T08:39:58.316Z,88.2
2022-09-11T08:54:24.043Z,93.7
2022-09-11T09:08:56.080Z,84.4
2022-09-11T09:23:26.013Z,89.3
2022-09-11T09:37:51.513Z,91.6
2022-09-11T09:52:21.566Z,89.2
2022-09-11T10:06:55.811Z,82.1
2022-09-11T10:21:21.144Z,85
2022-09-11T10:35:46.805Z,85
2022-09-11T10:50:16.867Z,85.3
2022-09-11T11:04:45.390Z,80.6
2022-09-11T11:19:15.355Z,80.1
2022-09-11T11:33:44.385Z,74.9
2022-09-11T11:48:13.484Z,75.6
2022-09-11T12:02:42.498Z,71.6
2022-09-11T12:17:09.620Z,77
2022-09-11T12:31:40.808Z,72.6
2022-09-11T12:46:09.388Z,73.2
2022-09-11T13:00:39.705Z,69
2022-09-11T13:15:08.208Z,69.9
2022-09-11T13:29:35.827Z,71
2022-09-11T13:44:06.914Z,64.5
2022-09-11T13:58:33.645Z,66.8
2022-09-11T14:13:01.463Z,68.9
2022-09-11T14:27:30.108Z,69
2022-09-11T14:42:03.481Z,69
2022-09-11T14:56:33.554Z,69.5
2022-09-11T15:11:03.624Z,65.1
2022-09-11T15:25:35.294Z,67.1
2022-09-11T15:40:01.050Z,65.7
2022-09-11T15:54:28.666Z,67.4
2022-09-11T16:08:58.148Z,65.6
2022-09-11T16:23:27.103Z,66.9
2022-09-11T16:37:55.664Z,65.9
2022-09-11T16:52:24.802Z,67.7
2022-09-11T17:06:52.112Z,70
2022-09-11T17:21:20.778Z,70.4
2022-09-11T17:35:48.900Z,72.9
2022-09-11T17:50:15.151Z,74.6
2022-09-11T18:04:40.202Z,77.2
2022-09-11T18:19:08.292Z,77.9
2022-09-11T18:33:37.634Z,83.2
2022-09-11T18:48:06.524Z,87.3
2022-09-11T19:02:35.370Z,84.2
2022-09-11T19:17:03.083Z,85.7
2022-09-11T19:31:30.930Z,86.9
2022-09-11T19:46:00.511Z,89.4
2022-09-11T20:00:26.931Z,94.5
2022-09-11T20:14:54.099Z,94.8
2022-09-11T20:29:28.351Z,91.5
2022-09-11T20:44:00.907Z,91.1
2022-09-11T20:58:24.972Z,90.5
2022-09-11T21:12:53.487Z,92.1
2022-09-11T21:27:22.456Z,93
2022-09-11T21:41:53.445Z,92.3
2022-09-11T21:56:18.317Z,92.8
2022-09-11T22:10:48.946Z,91.4
2022-09-11T22:25:19.226Z,92.7
2022-09-11T22:39:48.156Z,96
2022-09-11T22:54:17.117Z,91.4
2022-09-11T23:08:44.693Z,96.1
2022-09-11T23:23:13.988Z,99.2
2022-09-11T23:37:45.682Z,93.5
2022-09-11T23:52:12.208Z,97.8
